createdAt,value
2019-02-06T00:02:09.649Z,2.90
2019-02-06T00:05:13.684Z,4.67
2019-02-06T00:07:55.254Z,3.95
2019-02-06T00:10:48.042Z,2.83
2019-02-06T00:13:41.351Z,3.45
2019-02-06T00:16:34.938Z,3.17
2019-02-06T00:19:27.977Z,3.08
2019-02-06T00:22:21.803Z,2.80
2019-02-06T00:25:11.015Z,2.67
2019-02-06T00:28:03.816Z,3.27
2019-02-06T00:30:56.615Z,2.58
2019-02-06T00:33:49.927Z,2.37
2019-02-06T00:36:42.984Z,3.87
2019-02-06T00:39:36.043Z,3.30
2019-02-06T00:42:26.054Z,2.50
2019-02-06T00:45:18.842Z,2.83
2019-02-06T00:48:11.626Z,3.10
2019-02-06T00:51:04.711Z,2.72
2019-02-06T00:53:57.733Z,2.45
2019-02-06T00:56:51.048Z,3.08
2019-02-06T00:59:40.263Z,3.10
2019-02-06T01:02:33.582Z,3.67
2019-02-06T01:05:23.302Z,2.60
2019-02-06T01:08:17.128Z,3.75
2019-02-06T01:11:09.929Z,2.72
2019-02-06T01:14:05.801Z,2.45
2019-02-06T01:17:00.134Z,3.00
2019-02-06T01:19:53.190Z,2.70
2019-02-06T01:22:46.247Z,2.62
2019-02-06T01:25:31.626Z,2.87
2019-02-06T01:28:24.423Z,2.67
2019-02-06T01:31:20.041Z,2.67
2019-02-06T01:34:13.096Z,3.45
2019-02-06T01:37:02.309Z,2.52
2019-02-06T01:39:55.624Z,2.90
2019-02-06T01:42:48.937Z,2.80
2019-02-06T01:45:41.990Z,2.35
2019-02-06T01:48:35.314Z,2.50
2019-02-06T01:51:28.105Z,2.77
2019-02-06T01:54:20.908Z,2.45
2019-02-06T01:57:14.787Z,2.70
2019-02-06T02:00:07.790Z,3.08
2019-02-06T02:02:55.148Z,2.10
2019-02-06T02:06:01.411Z,3.90
2019-02-06T02:08:39.276Z,2.45
2019-02-06T02:11:32.074Z,2.62
2019-02-06T02:14:25.386Z,3.20
2019-02-06T02:17:18.183Z,3.20
2019-02-06T02:20:18.408Z,2.30
2019-02-06T02:23:11.728Z,2.40
2019-02-06T02:26:04.775Z,2.30
2019-02-06T02:28:58.608Z,2.52
2019-02-06T02:31:51.911Z,2.30
2019-02-06T02:34:44.711Z,1.87
2019-02-06T02:37:37.513Z,2.77
2019-02-06T02:40:30.825Z,2.85
2019-02-06T02:43:23.877Z,2.05
2019-02-06T02:46:16.683Z,2.50
2019-02-06T02:49:09.486Z,2.15
2019-02-06T02:52:02.279Z,2.85
2019-02-06T02:54:55.081Z,2.00
2019-02-06T02:57:49.161Z,3.70
2019-02-06T03:01:06.792Z,1.90
2019-02-06T03:04:25.710Z,2.30
2019-02-06T03:07:18.502Z,2.08
2019-02-06T03:10:11.302Z,2.15
2019-02-06T03:13:05.894Z,1.67
2019-02-06T03:15:55.429Z,2.58
2019-02-06T03:18:48.166Z,3.12
2019-02-06T03:21:40.968Z,2.22
2019-02-06T03:24:33.767Z,3.05
2019-02-06T03:27:27.080Z,2.25
2019-02-06T03:30:20.018Z,2.67
2019-02-06T03:33:13.230Z,3.05
2019-02-06T03:36:06.248Z,2.12
2019-02-06T03:38:59.048Z,3.27
2019-02-06T03:41:54.153Z,2.52
2019-02-06T03:44:46.948Z,3.25
2019-02-06T03:47:40.781Z,3.35
2019-02-06T03:50:35.367Z,2.40
2019-02-06T03:53:29.960Z,3.92
2019-02-06T03:56:23.024Z,2.65
2019-02-06T03:59:16.074Z,2.72
2019-02-06T04:02:08.881Z,2.35
2019-02-06T04:05:02.189Z,3.05
2019-02-06T04:07:56.016Z,3.70
2019-02-06T04:10:44.974Z,2.72
2019-02-06T04:13:38.023Z,2.15
2019-02-06T04:16:27.497Z,3.00
2019-02-06T04:19:20.299Z,2.72
2019-02-06T04:22:13.351Z,2.67
2019-02-06T04:25:06.167Z,3.45
2019-02-06T04:27:58.961Z,3.58
2019-02-06T04:30:52.011Z,3.25
2019-02-06T04:33:44.808Z,2.90
2019-02-06T04:36:37.863Z,2.25
2019-02-06T04:39:30.922Z,2.67
2019-02-06T04:42:23.726Z,2.80
2019-02-06T04:45:16.787Z,3.22
2019-02-06T04:48:09.578Z,3.70
2019-02-06T04:50:58.896Z,4.28
2019-02-06T04:53:51.848Z,4.42
2019-02-06T04:56:45.160Z,3.90
2019-02-06T04:59:38.982Z,2.45
2019-02-06T05:02:31.782Z,3.62
2019-02-06T05:05:25.611Z,3.65
2019-02-06T05:08:18.415Z,3.98
2019-02-06T05:11:11.464Z,3.27
2019-02-06T05:14:04.269Z,4.10
2019-02-06T05:16:57.071Z,2.30
2019-02-06T05:19:51.143Z,4.30
2019-02-06T05:22:43.949Z,2.15
2019-02-06T05:25:36.491Z,3.37
2019-02-06T05:28:29.543Z,2.67
2019-02-06T05:31:22.605Z,2.40
2019-02-06T05:34:16.679Z,3.85
2019-02-06T05:37:09.482Z,2.90
2019-02-06T05:39:58.644Z,3.30
2019-02-06T05:42:52.769Z,3.75
2019-02-06T05:45:44.557Z,3.85
2019-02-06T05:48:37.351Z,5.83
2019-02-06T05:51:30.663Z,3.25
2019-02-06T05:54:23.720Z,3.92
2019-02-06T05:57:16.522Z,3.20
2019-02-06T06:00:09.323Z,3.22
2019-02-06T06:03:02.124Z,5.37
2019-02-06T06:05:55.945Z,4.17
2019-02-06T06:08:49.003Z,3.35
2019-02-06T06:11:41.804Z,3.87
2019-02-06T06:14:34.858Z,3.67
2019-02-06T06:17:27.655Z,4.80
2019-02-06T06:20:16.622Z,3.22
2019-02-06T06:23:09.673Z,6.40
2019-02-06T06:26:03.054Z,3.70
2019-02-06T06:28:55.786Z,5.22
2019-02-06T06:31:48.843Z,5.47
2019-02-06T06:34:39.080Z,3.72
2019-02-06T06:37:31.882Z,6.12
2019-02-06T06:40:24.701Z,5.03
2019-02-06T06:43:17.742Z,4.50
2019-02-06T06:46:10.539Z,3.58
2019-02-06T06:49:03.339Z,5.65
2019-02-06T06:51:56.390Z,3.83
2019-02-06T06:54:49.753Z,4.50
2019-02-06T06:57:42.765Z,4.50
2019-02-06T07:00:37.354Z,3.50
2019-02-06T07:03:30.152Z,3.77
2019-02-06T07:06:19.375Z,5.42
2019-02-06T07:09:12.425Z,5.40
2019-02-06T07:12:05.743Z,4.83
2019-02-06T07:14:59.048Z,3.55
2019-02-06T07:17:52.362Z,4.72
2019-02-06T07:20:41.577Z,3.52
2019-02-06T07:23:34.375Z,3.10
2019-02-06T07:26:27.175Z,3.70
2019-02-06T07:29:20.746Z,5.35
2019-02-06T07:32:13.544Z,3.75
2019-02-06T07:35:02.762Z,4.17
2019-02-06T07:37:55.561Z,5.17
2019-02-06T07:40:48.875Z,5.05
2019-02-06T07:43:41.930Z,4.45
2019-02-06T07:46:34.985Z,5.72
2019-02-06T07:49:28.042Z,5.00
2019-02-06T07:52:21.359Z,6.08
2019-02-06T07:55:14.407Z,3.62
2019-02-06T07:58:03.893Z,3.62
2019-02-06T08:00:56.679Z,4.53
2019-02-06T08:03:49.993Z,5.22
2019-02-06T08:06:42.791Z,4.75
2019-02-06T08:09:36.361Z,4.03
2019-02-06T08:12:29.930Z,5.90
2019-02-06T08:15:18.889Z,4.03
2019-02-06T08:18:12.715Z,5.45
2019-02-06T08:21:05.512Z,4.90
2019-02-06T08:23:58.571Z,4.70
2019-02-06T08:26:51.628Z,5.45
2019-02-06T08:29:44.948Z,4.30
2019-02-06T08:32:39.016Z,4.65
2019-02-06T08:35:31.901Z,4.70
2019-02-06T08:38:24.909Z,4.10
2019-02-06T08:41:17.674Z,4.85
2019-02-06T08:44:06.638Z,4.92
2019-02-06T08:46:59.692Z,4.97
2019-02-06T08:49:54.540Z,5.53
2019-02-06T08:52:59.122Z,4.42
2019-02-06T08:55:52.681Z,4.05
2019-02-06T08:58:45.997Z,4.37
2019-02-06T09:01:39.307Z,4.80
2019-02-06T09:04:33.383Z,4.95
2019-02-06T09:07:26.184Z,6.60
2019-02-06T09:10:19.752Z,6.25
2019-02-06T09:13:13.831Z,8.53
2019-02-06T09:16:06.886Z,3.92
2019-02-06T09:18:59.943Z,5.20
2019-02-06T09:21:53.261Z,5.85
2019-02-06T09:24:47.083Z,5.62
2019-02-06T09:27:39.880Z,5.45
2019-02-06T09:30:33.962Z,5.22
2019-02-06T09:33:27.015Z,5.30
2019-02-06T09:36:16.240Z,4.00
2019-02-06T09:39:11.730Z,4.97
2019-02-06T09:42:02.599Z,5.10
2019-02-06T09:44:49.900Z,5.20
2019-02-06T09:47:42.567Z,4.47
2019-02-06T09:50:29.506Z,4.65
2019-02-06T09:53:23.304Z,5.28
2019-02-06T09:56:17.134Z,4.60
2019-02-06T09:59:10.950Z,6.28
2019-02-06T10:02:05.292Z,4.75
2019-02-06T10:04:58.094Z,6.10
2019-02-06T10:07:51.146Z,3.90
2019-02-06T10:10:44.755Z,6.22
2019-02-06T10:13:37.512Z,4.03
2019-02-06T10:16:29.546Z,4.95
2019-02-06T10:19:18.762Z,4.60
2019-02-06T10:22:11.817Z,4.30
2019-02-06T10:25:04.616Z,3.77
2019-02-06T10:27:57.701Z,5.22
2019-02-06T10:30:54.320Z,4.90
2019-02-06T10:33:43.537Z,3.85
2019-02-06T10:36:39.653Z,4.42
2019-02-06T10:39:34.610Z,3.65
2019-02-06T10:42:25.254Z,4.42
2019-02-06T10:45:20.915Z,3.45
2019-02-06T10:48:10.855Z,3.75
2019-02-06T10:51:15.176Z,5.30
2019-02-06T10:54:07.977Z,5.42
2019-02-06T10:57:00.776Z,4.45
2019-02-06T10:59:50.760Z,4.62
2019-02-06T11:02:43.817Z,5.17
2019-02-06T11:05:36.646Z,4.47
2019-02-06T11:08:29.676Z,4.62
2019-02-06T11:11:19.056Z,4.95
2019-02-06T11:14:11.942Z,3.52
2019-02-06T11:17:06.286Z,4.45
2019-02-06T11:19:59.079Z,5.00
2019-02-06T11:22:52.134Z,3.95
2019-02-06T11:25:45.192Z,4.45
2019-02-06T11:28:38.248Z,3.95
2019-02-06T11:31:32.328Z,4.97
2019-02-06T11:34:25.129Z,4.00
2019-02-06T11:37:17.927Z,6.40
2019-02-06T11:40:10.992Z,5.12
2019-02-06T11:43:04.044Z,3.87
2019-02-06T11:45:57.377Z,5.12
2019-02-06T11:48:50.409Z,5.30
2019-02-06T11:51:39.626Z,5.55
2019-02-06T11:54:32.517Z,4.90
2019-02-06T11:57:25.477Z,5.10
2019-02-06T12:00:18.537Z,4.80
2019-02-06T12:03:11.849Z,5.12
2019-02-06T12:06:05.928Z,4.03
2019-02-06T12:08:58.986Z,3.37
2019-02-06T12:11:52.041Z,5.08
2019-02-06T12:14:44.840Z,4.30
2019-02-06T12:17:37.639Z,4.80
2019-02-06T12:21:20.105Z,4.45
2019-02-06T12:24:15.975Z,5.70
2019-02-06T12:27:05.193Z,6.45
2019-02-06T12:29:58.250Z,4.37
2019-02-06T12:32:52.596Z,4.83
2019-02-06T12:35:44.364Z,4.45
2019-02-06T12:38:33.603Z,3.52
2019-02-06T12:41:26.633Z,5.15
2019-02-06T12:44:19.687Z,5.30
2019-02-06T12:47:09.671Z,5.92
2019-02-06T12:49:59.179Z,5.78
2019-02-06T12:52:52.455Z,5.35
2019-02-06T12:55:42.955Z,4.62
2019-02-06T12:58:37.800Z,7.55
2019-02-06T13:01:30.858Z,5.85
2019-02-06T13:04:20.078Z,4.03
2019-02-06T13:07:12.876Z,5.35
2019-02-06T13:10:06.191Z,4.40
2019-02-06T13:12:59.498Z,5.78
2019-02-06T13:15:52.809Z,6.83
2019-02-06T13:18:47.143Z,5.08
2019-02-06T13:21:40.970Z,4.47
2019-02-06T13:24:34.025Z,4.33
2019-02-06T13:27:26.828Z,6.65
2019-02-06T13:30:19.622Z,8.65
2019-02-06T13:33:25.224Z,5.95
2019-02-06T13:36:18.284Z,5.78
2019-02-06T13:39:11.080Z,5.30
2019-02-06T13:42:05.498Z,8.45
2019-02-06T13:44:58.247Z,6.97
2019-02-06T13:47:51.281Z,5.85
2019-02-06T13:50:38.639Z,5.67
2019-02-06T13:53:31.500Z,5.40
2019-02-06T13:56:24.556Z,6.65
2019-02-06T13:59:17.618Z,6.60
2019-02-06T14:02:10.665Z,5.65
2019-02-06T14:04:59.883Z,5.85
2019-02-06T14:07:52.937Z,8.35
2019-02-06T14:10:58.068Z,5.75
2019-02-06T14:13:39.050Z,7.15
2019-02-06T14:16:32.875Z,5.45
2019-02-06T14:19:26.184Z,5.97
2019-02-06T14:22:19.242Z,5.65
2019-02-06T14:25:17.422Z,4.80
2019-02-06T14:28:44.558Z,2.90
2019-02-06T14:31:53.454Z,6.65
2019-02-06T14:34:58.026Z,4.30
2019-02-06T14:38:11.303Z,5.50
2019-02-06T14:41:15.627Z,4.65
2019-02-06T14:44:28.903Z,5.40
2019-02-06T14:47:33.225Z,6.05
2019-02-06T14:50:37.798Z,3.80
2019-02-06T14:53:44.940Z,5.72
2019-02-06T14:57:01.299Z,4.62
2019-02-06T14:59:57.929Z,7.20
2019-02-06T15:02:55.399Z,6.25
2019-02-06T15:05:58.889Z,8.08
2019-02-06T15:09:03.465Z,7.22
2019-02-06T15:12:19.819Z,5.50
2019-02-06T15:15:19.296Z,7.50
2019-02-06T15:18:23.849Z,6.70
2019-02-06T15:21:29.446Z,4.78
2019-02-06T15:24:39.144Z,5.20
2019-02-06T15:27:49.095Z,6.22
2019-02-06T15:31:06.480Z,5.12
2019-02-06T15:34:15.524Z,6.15
2019-02-06T15:37:26.631Z,4.10
2019-02-06T15:40:30.950Z,5.08
2019-02-06T15:43:25.802Z,5.40
2019-02-06T15:46:30.379Z,5.78
2019-02-06T15:49:40.841Z,4.53
2019-02-06T15:52:54.133Z,5.50
2019-02-06T15:55:58.442Z,4.47
2019-02-06T15:59:11.721Z,5.55
2019-02-06T16:02:31.142Z,4.62
2019-02-06T16:05:55.176Z,5.25
2019-02-06T16:09:11.294Z,4.17
2019-02-06T16:12:20.655Z,3.90
2019-02-06T16:15:36.812Z,3.95
2019-02-06T16:18:56.235Z,4.83
2019-02-06T16:22:15.400Z,4.00
2019-02-06T16:25:20.233Z,4.78
2019-02-06T16:28:24.048Z,4.17
2019-02-06T16:31:31.180Z,3.58
2019-02-06T16:34:48.041Z,3.85
2019-02-06T16:37:52.616Z,4.95
2019-02-06T16:41:04.872Z,4.05
2019-02-06T16:44:06.631Z,4.75
2019-02-06T16:47:05.325Z,3.75
2019-02-06T16:50:15.785Z,5.58
2019-02-06T16:53:29.831Z,4.75
2019-02-06T16:56:48.999Z,3.70
2019-02-06T16:59:53.319Z,2.87
2019-02-06T17:02:57.647Z,4.95
2019-02-06T17:06:07.851Z,5.10
2019-02-06T17:09:15.243Z,4.92
2019-02-06T17:12:21.799Z,5.20
2019-02-06T17:15:33.352Z,5.03
2019-02-06T17:18:37.675Z,4.55
2019-02-06T17:21:47.880Z,4.10
2019-02-06T17:24:52.457Z,4.33
2019-02-06T17:28:09.067Z,5.35
2019-02-06T17:31:31.313Z,6.40
2019-02-06T17:34:38.186Z,4.58
2019-02-06T17:37:41.225Z,4.72
2019-02-06T17:40:55.273Z,5.87
2019-02-06T17:43:56.076Z,5.55
2019-02-06T17:47:06.219Z,4.72
2019-02-06T17:50:09.777Z,5.20
2019-02-06T17:53:21.516Z,5.62
2019-02-06T17:56:10.756Z,5.50
2019-02-06T17:59:05.576Z,5.45
2019-02-06T18:02:02.503Z,5.62
2019-02-06T18:04:57.322Z,5.60
2019-02-06T18:07:50.121Z,5.90
2019-02-06T18:10:43.433Z,5.75
2019-02-06T18:13:36.491Z,6.25
2019-02-06T18:16:29.544Z,4.85
2019-02-06T18:19:23.112Z,5.50
2019-02-06T18:22:16.170Z,5.33
2019-02-06T18:25:09.224Z,5.80
2019-02-06T18:28:02.279Z,3.40
2019-02-06T18:30:55.086Z,5.55
2019-02-06T18:33:48.136Z,5.28
2019-02-06T18:36:41.450Z,5.33
2019-02-06T18:39:35.019Z,4.47
2019-02-06T18:42:37.006Z,4.37
2019-02-06T18:45:22.407Z,4.83
2019-02-06T18:48:11.879Z,5.53
2019-02-06T18:51:04.935Z,5.42
2019-02-06T18:53:58.251Z,4.33
2019-02-06T18:56:51.054Z,4.85
2019-02-06T18:59:43.862Z,3.72
2019-02-06T19:02:37.162Z,4.12
2019-02-06T19:05:27.172Z,3.02
2019-02-06T19:08:16.563Z,3.85
2019-02-06T19:11:09.416Z,4.67
2019-02-06T19:14:02.218Z,4.00
2019-02-06T19:16:55.527Z,3.85
2019-02-06T19:19:49.606Z,3.77
2019-02-06T19:22:42.408Z,3.70
2019-02-06T19:25:35.470Z,3.92
2019-02-06T19:28:29.546Z,3.58
2019-02-06T19:31:23.626Z,3.60
2019-02-06T19:34:16.682Z,3.45
2019-02-06T19:37:10.761Z,3.37
2019-02-06T19:40:03.815Z,3.60
2019-02-06T19:43:00.481Z,3.70
2019-02-06T19:45:49.416Z,3.10
2019-02-06T19:48:42.990Z,4.67
2019-02-06T19:51:32.203Z,3.83
2019-02-06T19:54:25.000Z,2.90
2019-02-06T19:57:19.090Z,2.95
2019-02-06T20:00:12.142Z,3.87
2019-02-06T20:03:08.043Z,3.92
2019-02-06T20:05:58.254Z,3.55
2019-02-06T20:08:51.058Z,4.03
2019-02-06T20:11:44.109Z,3.40
2019-02-06T20:14:37.419Z,2.60
2019-02-06T20:17:24.843Z,3.12
2019-02-06T20:20:10.473Z,3.75
2019-02-06T20:23:03.377Z,3.77
2019-02-06T20:25:56.590Z,2.62
2019-02-06T20:28:49.387Z,3.12
2019-02-06T20:31:42.182Z,3.17
2019-02-06T20:34:36.267Z,3.40
2019-02-06T20:37:29.319Z,2.87
2019-02-06T20:40:22.376Z,2.72
2019-02-06T20:43:21.773Z,3.00
2019-02-06T20:46:06.714Z,2.95
2019-02-06T20:49:01.034Z,2.80
2019-02-06T20:51:48.841Z,2.60
2019-02-06T20:54:42.024Z,3.67
2019-02-06T20:57:34.834Z,2.77
2019-02-06T21:00:29.160Z,2.85
2019-02-06T21:03:21.966Z,4.05
2019-02-06T21:06:11.176Z,3.35
2019-02-06T21:09:00.551Z,3.85
2019-02-06T21:11:53.449Z,2.25
2019-02-06T21:14:46.502Z,2.90
2019-02-06T21:17:40.327Z,2.25
2019-02-06T21:20:34.668Z,4.85
2019-02-06T21:23:23.883Z,2.87
2019-02-06T21:26:16.935Z,2.80
2019-02-06T21:29:09.992Z,2.87
2019-02-06T21:32:03.053Z,3.25
2019-02-06T21:34:56.873Z,3.37
2019-02-06T21:37:49.933Z,2.47
2019-02-06T21:40:44.008Z,3.90
2019-02-06T21:43:44.139Z,3.17
2019-02-06T21:46:31.399Z,3.10
2019-02-06T21:49:24.454Z,4.00
2019-02-06T21:52:18.023Z,3.40
2019-02-06T21:55:10.823Z,3.60
2019-02-06T21:58:04.904Z,3.37
2019-02-06T22:00:55.155Z,2.50
2019-02-06T22:03:47.945Z,3.17
2019-02-06T22:06:40.744Z,3.85
2019-02-06T22:09:34.319Z,3.33
2019-02-06T22:12:28.415Z,3.72
2019-02-06T22:15:21.723Z,2.30
2019-02-06T22:18:14.760Z,4.15
2019-02-06T22:21:04.200Z,3.83
2019-02-06T22:23:57.057Z,4.03
2019-02-06T22:26:49.836Z,4.35
2019-02-06T22:29:42.632Z,3.12
2019-02-06T22:32:35.946Z,2.98
2019-02-06T22:35:30.027Z,2.65
2019-02-06T22:38:23.083Z,4.78
2019-02-06T22:41:16.140Z,3.15
2019-02-06T22:44:12.013Z,3.55
2019-02-06T22:47:06.089Z,3.20
2019-02-06T22:49:58.896Z,4.03
2019-02-06T22:52:51.943Z,3.72
2019-02-06T22:55:45.294Z,3.77
2019-02-06T22:58:38.569Z,3.83
2019-02-06T23:01:51.848Z,3.40
2019-02-06T23:04:44.647Z,2.60
2019-02-06T23:07:37.447Z,4.08
2019-02-06T23:10:31.015Z,3.75
2019-02-06T23:13:23.822Z,2.80
2019-02-06T23:16:17.391Z,3.42
2019-02-06T23:19:10.704Z,3.80
2019-02-06T23:22:03.750Z,2.33
2019-02-06T23:24:52.966Z,3.47
2019-02-06T23:27:46.025Z,4.87
2019-02-06T23:30:35.275Z,3.10
2019-02-06T23:33:28.043Z,3.15
2019-02-06T23:36:21.096Z,2.75
2019-02-06T23:39:10.315Z,3.87
2019-02-06T23:42:03.123Z,3.75
2019-02-06T23:44:55.911Z,2.83
2019-02-06T23:47:48.971Z,3.62
2019-02-06T23:50:38.543Z,3.87
2019-02-06T23:53:31.589Z,3.00
2019-02-06T23:56:20.713Z,2.80
2019-02-06T23:59:13.780Z,2.98
